sensor_id;sensor_type;location;lat;lon;timestamp;P1;durP1;ratioP1;P2;durP2;ratioP2
69542;SDS011;56762;49.494;11.768;2023-02-15T00:00:05;17.55;;;5.10;;
69542;SDS011;56762;49.494;11.768;2023-02-15T00:02:34;14.23;;;5.32;;
69542;SDS011;56762;49.494;11.768;2023-02-15T00:05:02;13.75;;;5.00;;
69542;SDS011;56762;49.494;11.768;2023-02-15T00:07:30;13.70;;;5.13;;
69542;SDS011;56762;49.494;11.768;2023-02-15T00:09:58;13.10;;;5.77;;
69542;SDS011;56762;49.494;11.768;2023-02-15T00:12:27;18.42;;;6.07;;
69542;SDS011;56762;49.494;11.768;2023-02-15T00:14:56;17.33;;;5.00;;
69542;SDS011;56762;49.494;11.768;2023-02-15T00:17:26;12.48;;;4.72;;
69542;SDS011;56762;49.494;11.768;2023-02-15T00:19:54;16.80;;;5.47;;
69542;SDS011;56762;49.494;11.768;2023-02-15T00:22:22;16.20;;;5.23;;
69542;SDS011;56762;49.494;11.768;2023-02-15T00:24:50;17.50;;;4.80;;
69542;SDS011;56762;49.494;11.768;2023-02-15T00:27:18;17.10;;;4.78;;
69542;SDS011;56762;49.494;11.768;2023-02-15T00:29:46;13.57;;;5.00;;
69542;SDS011;56762;49.494;11.768;2023-02-15T00:32:15;11.65;;;4.68;;
69542;SDS011;56762;49.494;11.768;2023-02-15T00:34:43;12.67;;;4.77;;
69542;SDS011;56762;49.494;11.768;2023-02-15T00:37:10;14.68;;;5.53;;
69542;SDS011;56762;49.494;11.768;2023-02-15T00:39:38;18.42;;;5.68;;
69542;SDS011;56762;49.494;11.768;2023-02-15T00:42:06;12.60;;;5.18;;
69542;SDS011;56762;49.494;11.768;2023-02-15T00:44:33;14.75;;;5.07;;
69542;SDS011;56762;49.494;11.768;2023-02-15T00:47:01;14.60;;;5.20;;
69542;SDS011;56762;49.494;11.768;2023-02-15T00:49:30;12.55;;;5.25;;
69542;SDS011;56762;49.494;11.768;2023-02-15T00:51:58;13.27;;;5.07;;
69542;SDS011;56762;49.494;11.768;2023-02-15T00:54:26;14.02;;;5.13;;
69542;SDS011;56762;49.494;11.768;2023-02-15T00:56:53;13.48;;;4.45;;
69542;SDS011;56762;49.494;11.768;2023-02-15T00:59:21;12.30;;;4.37;;
69542;SDS011;56762;49.494;11.768;2023-02-15T01:01:49;10.07;;;3.80;;
69542;SDS011;56762;49.494;11.768;2023-02-15T01:04:17;12.30;;;4.18;;
69542;SDS011;56762;49.494;11.768;2023-02-15T01:06:46;13.68;;;4.18;;
69542;SDS011;56762;49.494;11.768;2023-02-15T01:09:14;10.70;;;3.42;;
69542;SDS011;56762;49.494;11.768;2023-02-15T01:11:41;15.67;;;4.27;;
69542;SDS011;56762;49.494;11.768;2023-02-15T01:14:09;19.42;;;4.05;;
69542;SDS011;56762;49.494;11.768;2023-02-15T01:16:37;12.90;;;3.50;;
69542;SDS011;56762;49.494;11.768;2023-02-15T01:19:05;12.30;;;3.80;;
69542;SDS011;56762;49.494;11.768;2023-02-15T01:21:33;10.27;;;3.70;;
69542;SDS011;56762;49.494;11.768;2023-02-15T01:24:02;8.90;;;3.40;;
69542;SDS011;56762;49.494;11.768;2023-02-15T01:26:30;13.95;;;3.42;;
69542;SDS011;56762;49.494;11.768;2023-02-15T01:28:58;9.05;;;3.88;;
69542;SDS011;56762;49.494;11.768;2023-02-15T01:31:26;11.05;;;3.78;;
69542;SDS011;56762;49.494;11.768;2023-02-15T01:33:53;11.43;;;3.90;;
69542;SDS011;56762;49.494;11.768;2023-02-15T01:36:21;10.47;;;3.53;;
69542;SDS011;56762;49.494;11.768;2023-02-15T01:38:49;12.27;;;3.30;;
69542;SDS011;56762;49.494;11.768;2023-02-15T01:41:18;13.10;;;3.88;;
69542;SDS011;56762;49.494;11.768;2023-02-15T01:43:51;8.88;;;3.38;;
69542;SDS011;56762;49.494;11.768;2023-02-15T01:46:22;10.68;;;3.63;;
69542;SDS011;56762;49.494;11.768;2023-02-15T01:48:55;10.10;;;3.23;;
69542;SDS011;56762;49.494;11.768;2023-02-15T01:51:27;10.93;;;3.55;;
69542;SDS011;56762;49.494;11.768;2023-02-15T01:53:58;10.73;;;3.55;;
69542;SDS011;56762;49.494;11.768;2023-02-15T01:56:31;11.05;;;3.88;;
69542;SDS011;56762;49.494;11.768;2023-02-15T01:59:03;9.90;;;3.65;;
69542;SDS011;56762;49.494;11.768;2023-02-15T02:01:35;13.30;;;3.73;;
69542;SDS011;56762;49.494;11.768;2023-02-15T02:04:04;8.05;;;2.85;;
69542;SDS011;56762;49.494;11.768;2023-02-15T02:06:36;9.70;;;3.42;;
69542;SDS011;56762;49.494;11.768;2023-02-15T02:09:06;10.10;;;3.40;;
69542;SDS011;56762;49.494;11.768;2023-02-15T02:11:35;11.50;;;4.25;;
69542;SDS011;56762;49.494;11.768;2023-02-15T02:14:03;12.03;;;3.50;;
69542;SDS011;56762;49.494;11.768;2023-02-15T02:16:34;11.63;;;3.50;;
69542;SDS011;56762;49.494;11.768;2023-02-15T02:19:19;9.52;;;3.47;;
69542;SDS011;56762;49.494;11.768;2023-02-15T02:22:08;8.35;;;3.38;;
69542;SDS011;56762;49.494;11.768;2023-02-15T02:25:04;9.27;;;3.55;;
69542;SDS011;56762;49.494;11.768;2023-02-15T02:27:47;11.47;;;3.93;;
69542;SDS011;56762;49.494;11.768;2023-02-15T02:30:37;12.25;;;4.97;;
69542;SDS011;56762;49.494;11.768;2023-02-15T02:33:52;12.40;;;3.92;;
69542;SDS011;56762;49.494;11.768;2023-02-15T02:36:29;11.55;;;4.50;;
69542;SDS011;56762;49.494;11.768;2023-02-15T02:39:09;11.38;;;4.07;;
69542;SDS011;56762;49.494;11.768;2023-02-15T02:41:50;8.60;;;3.70;;
69542;SDS011;56762;49.494;11.768;2023-02-15T02:44:24;11.82;;;4.55;;
69542;SDS011;56762;49.494;11.768;2023-02-15T02:46:57;12.60;;;4.15;;
69542;SDS011;56762;49.494;11.768;2023-02-15T02:49:31;9.52;;;3.60;;
69542;SDS011;56762;49.494;11.768;2023-02-15T02:52:01;11.75;;;3.70;;
69542;SDS011;56762;49.494;11.768;2023-02-15T02:54:31;10.77;;;3.87;;
69542;SDS011;56762;49.494;11.768;2023-02-15T02:57:02;12.77;;;4.28;;
69542;SDS011;56762;49.494;11.768;2023-02-15T02:59:33;11.00;;;3.95;;
69542;SDS011;56762;49.494;11.768;2023-02-15T03:02:07;9.77;;;3.60;;
69542;SDS011;56762;49.494;11.768;2023-02-15T03:04:41;12.98;;;4.40;;
69542;SDS011;56762;49.494;11.768;2023-02-15T03:07:13;9.33;;;3.50;;
69542;SDS011;56762;49.494;11.768;2023-02-15T03:09:48;9.60;;;4.28;;
69542;SDS011;56762;49.494;11.768;2023-02-15T03:12:19;9.88;;;4.00;;
69542;SDS011;56762;49.494;11.768;2023-02-15T03:14:50;9.25;;;3.00;;
69542;SDS011;56762;49.494;11.768;2023-02-15T03:17:21;10.52;;;4.10;;
69542;SDS011;56762;49.494;11.768;2023-02-15T03:19:52;13.00;;;4.50;;
69542;SDS011;56762;49.494;11.768;2023-02-15T03:22:26;9.95;;;3.63;;
69542;SDS011;56762;49.494;11.768;2023-02-15T03:24:59;11.63;;;4.22;;
69542;SDS011;56762;49.494;11.768;2023-02-15T03:27:33;11.82;;;3.60;;
69542;SDS011;56762;49.494;11.768;2023-02-15T03:30:06;10.05;;;3.83;;
69542;SDS011;56762;49.494;11.768;2023-02-15T03:32:36;9.40;;;3.77;;
69542;SDS011;56762;49.494;11.768;2023-02-15T03:35:07;12.10;;;4.93;;
69542;SDS011;56762;49.494;11.768;2023-02-15T03:37:36;14.27;;;4.80;;
69542;SDS011;56762;49.494;11.768;2023-02-15T03:40:09;12.68;;;4.25;;
69542;SDS011;56762;49.494;11.768;2023-02-15T03:42:58;14.82;;;4.60;;
69542;SDS011;56762;49.494;11.768;2023-02-15T03:45:31;13.00;;;3.83;;
69542;SDS011;56762;49.494;11.768;2023-02-15T03:48:01;12.23;;;4.47;;
69542;SDS011;56762;49.494;11.768;2023-02-15T03:50:32;14.88;;;4.75;;
69542;SDS011;56762;49.494;11.768;2023-02-15T03:53:18;12.55;;;4.65;;
69542;SDS011;56762;49.494;11.768;2023-02-15T03:55:47;15.27;;;5.57;;
69542;SDS011;56762;49.494;11.768;2023-02-15T03:58:15;12.87;;;4.57;;
69542;SDS011;56762;49.494;11.768;2023-02-15T04:01:03;13.43;;;5.18;;
69542;SDS011;56762;49.494;11.768;2023-02-15T04:03:57;12.02;;;4.47;;
69542;SDS011;56762;49.494;11.768;2023-02-15T04:06:29;13.20;;;5.13;;
69542;SDS011;56762;49.494;11.768;2023-02-15T04:09:00;14.07;;;4.82;;
69542;SDS011;56762;49.494;11.768;2023-02-15T04:11:50;12.73;;;4.83;;
69542;SDS011;56762;49.494;11.768;2023-02-15T04:14:18;16.80;;;5.05;;
69542;SDS011;56762;49.494;11.768;2023-02-15T04:17:04;14.50;;;4.53;;
69542;SDS011;56762;49.494;11.768;2023-02-15T04:19:33;14.52;;;4.57;;
69542;SDS011;56762;49.494;11.768;2023-02-15T04:22:20;11.25;;;4.13;;
69542;SDS011;56762;49.494;11.768;2023-02-15T04:25:05;16.50;;;4.77;;
69542;SDS011;56762;49.494;11.768;2023-02-15T04:27:41;12.85;;;5.15;;
69542;SDS011;56762;49.494;11.768;2023-02-15T04:30:11;11.45;;;4.28;;
69542;SDS011;56762;49.494;11.768;2023-02-15T04:32:40;13.05;;;4.68;;
69542;SDS011;56762;49.494;11.768;2023-02-15T04:35:08;11.95;;;4.85;;
69542;SDS011;56762;49.494;11.768;2023-02-15T04:37:39;10.90;;;4.27;;
69542;SDS011;56762;49.494;11.768;2023-02-15T04:40:08;13.23;;;4.65;;
69542;SDS011;56762;49.494;11.768;2023-02-15T04:42:40;13.98;;;4.50;;
69542;SDS011;56762;49.494;11.768;2023-02-15T04:45:08;13.20;;;4.53;;
69542;SDS011;56762;49.494;11.768;2023-02-15T04:47:36;11.52;;;3.97;;
69542;SDS011;56762;49.494;11.768;2023-02-15T04:50:04;12.97;;;4.97;;
69542;SDS011;56762;49.494;11.768;2023-02-15T04:52:33;17.13;;;5.25;;
69542;SDS011;56762;49.494;11.768;2023-02-15T04:55:02;12.90;;;4.57;;
69542;SDS011;56762;49.494;11.768;2023-02-15T04:57:30;11.90;;;4.30;;
69542;SDS011;56762;49.494;11.768;2023-02-15T04:59:58;10.50;;;3.88;;
69542;SDS011;56762;49.494;11.768;2023-02-15T05:02:27;12.40;;;4.40;;
69542;SDS011;56762;49.494;11.768;2023-02-15T05:04:55;11.68;;;4.88;;
69542;SDS011;56762;49.494;11.768;2023-02-15T05:07:22;11.45;;;4.50;;
69542;SDS011;56762;49.494;11.768;2023-02-15T05:09:50;11.95;;;4.53;;
69542;SDS011;56762;49.494;11.768;2023-02-15T05:12:19;14.18;;;5.22;;
69542;SDS011;56762;49.494;11.768;2023-02-15T05:14:47;10.90;;;4.17;;
69542;SDS011;56762;49.494;11.768;2023-02-15T05:17:15;12.35;;;5.05;;
69542;SDS011;56762;49.494;11.768;2023-02-15T05:19:42;13.80;;;4.60;;
69542;SDS011;56762;49.494;11.768;2023-02-15T05:22:10;10.90;;;3.70;;
69542;SDS011;56762;49.494;11.768;2023-02-15T05:24:38;9.93;;;3.60;;
69542;SDS011;56762;49.494;11.768;2023-02-15T05:27:24;11.40;;;4.00;;
69542;SDS011;56762;49.494;11.768;2023-02-15T05:30:11;10.40;;;4.00;;
69542;SDS011;56762;49.494;11.768;2023-02-15T05:32:40;13.18;;;4.18;;
69542;SDS011;56762;49.494;11.768;2023-02-15T05:35:11;11.75;;;4.25;;
69542;SDS011;56762;49.494;11.768;2023-02-15T05:37:41;11.93;;;4.53;;
69542;SDS011;56762;49.494;11.768;2023-02-15T05:40:09;10.03;;;3.80;;
69542;SDS011;56762;49.494;11.768;2023-02-15T05:42:39;11.68;;;3.95;;
69542;SDS011;56762;49.494;11.768;2023-02-15T05:45:07;11.63;;;4.60;;
69542;SDS011;56762;49.494;11.768;2023-02-15T05:47:35;12.90;;;4.55;;
69542;SDS011;56762;49.494;11.768;2023-02-15T05:50:03;9.63;;;3.80;;
69542;SDS011;56762;49.494;11.768;2023-02-15T05:52:31;12.97;;;4.37;;
69542;SDS011;56762;49.494;11.768;2023-02-15T05:54:59;10.98;;;4.20;;
69542;SDS011;56762;49.494;11.768;2023-02-15T05:57:28;10.63;;;4.05;;
69542;SDS011;56762;49.494;11.768;2023-02-15T05:59:57;9.00;;;3.42;;
69542;SDS011;56762;49.494;11.768;2023-02-15T06:02:25;11.57;;;4.07;;
69542;SDS011;56762;49.494;11.768;2023-02-15T06:04:53;9.63;;;3.70;;
69542;SDS011;56762;49.494;11.768;2023-02-15T06:07:21;13.10;;;4.18;;
69542;SDS011;56762;49.494;11.768;2023-02-15T06:09:48;8.98;;;3.58;;
69542;SDS011;56762;49.494;11.768;2023-02-15T06:12:16;11.57;;;5.00;;
69542;SDS011;56762;49.494;11.768;2023-02-15T06:14:44;11.00;;;4.13;;
69542;SDS011;56762;49.494;11.768;2023-02-15T06:17:15;11.43;;;5.30;;
69542;SDS011;56762;49.494;11.768;2023-02-15T06:19:43;11.30;;;4.40;;
69542;SDS011;56762;49.494;11.768;2023-02-15T06:22:11;10.55;;;4.28;;
69542;SDS011;56762;49.494;11.768;2023-02-15T06:24:40;11.88;;;4.65;;
69542;SDS011;56762;49.494;11.768;2023-02-15T06:27:09;16.25;;;7.75;;
69542;SDS011;56762;49.494;11.768;2023-02-15T06:29:37;13.50;;;5.87;;
69542;SDS011;56762;49.494;11.768;2023-02-15T06:32:05;11.98;;;5.28;;
69542;SDS011;56762;49.494;11.768;2023-02-15T06:34:35;13.43;;;4.72;;
69542;SDS011;56762;49.494;11.768;2023-02-15T06:37:03;11.80;;;4.60;;
69542;SDS011;56762;49.494;11.768;2023-02-15T06:39:31;11.00;;;4.47;;
69542;SDS011;56762;49.494;11.768;2023-02-15T06:41:59;15.20;;;4.73;;
69542;SDS011;56762;49.494;11.768;2023-02-15T06:44:27;10.77;;;3.80;;
69542;SDS011;56762;49.494;11.768;2023-02-15T06:46:54;11.57;;;4.57;;
69542;SDS011;56762;49.494;11.768;2023-02-15T06:49:22;12.00;;;4.88;;
69542;SDS011;56762;49.494;11.768;2023-02-15T06:51:51;12.00;;;4.47;;
69542;SDS011;56762;49.494;11.768;2023-02-15T06:54:19;12.90;;;5.10;;
69542;SDS011;56762;49.494;11.768;2023-02-15T06:56:47;12.70;;;4.97;;
69542;SDS011;56762;49.494;11.768;2023-02-15T06:59:15;12.68;;;5.07;;
69542;SDS011;56762;49.494;11.768;2023-02-15T07:01:43;13.38;;;4.32;;
69542;SDS011;56762;49.494;11.768;2023-02-15T07:04:10;11.00;;;4.30;;
69542;SDS011;56762;49.494;11.768;2023-02-15T07:06:38;11.90;;;4.27;;
69542;SDS011;56762;49.494;11.768;2023-02-15T07:09:07;10.77;;;4.10;;
69542;SDS011;56762;49.494;11.768;2023-02-15T07:11:35;16.58;;;5.25;;
69542;SDS011;56762;49.494;11.768;2023-02-15T07:14:21;19.92;;;5.40;;
69542;SDS011;56762;49.494;11.768;2023-02-15T07:16:49;10.75;;;4.03;;
69542;SDS011;56762;49.494;11.768;2023-02-15T07:19:16;11.13;;;4.13;;
69542;SDS011;56762;49.494;11.768;2023-02-15T07:21:44;10.48;;;3.58;;
69542;SDS011;56762;49.494;11.768;2023-02-15T07:24:14;11.13;;;4.70;;
69542;SDS011;56762;49.494;11.768;2023-02-15T07:26:42;12.10;;;3.63;;
69542;SDS011;56762;49.494;11.768;2023-02-15T07:29:09;11.95;;;4.57;;
69542;SDS011;56762;49.494;11.768;2023-02-15T07:31:37;10.70;;;3.30;;
69542;SDS011;56762;49.494;11.768;2023-02-15T07:34:05;10.80;;;4.03;;
69542;SDS011;56762;49.494;11.768;2023-02-15T07:36:33;12.27;;;4.18;;
69542;SDS011;56762;49.494;11.768;2023-02-15T07:39:02;11.93;;;3.72;;
69542;SDS011;56762;49.494;11.768;2023-02-15T07:41:31;12.75;;;4.25;;
69542;SDS011;56762;49.494;11.768;2023-02-15T07:43:59;12.37;;;3.57;;
69542;SDS011;56762;49.494;11.768;2023-02-15T07:46:27;13.63;;;3.95;;
69542;SDS011;56762;49.494;11.768;2023-02-15T07:48:56;10.50;;;4.22;;
69542;SDS011;56762;49.494;11.768;2023-02-15T07:51:24;14.55;;;4.63;;
69542;SDS011;56762;49.494;11.768;2023-02-15T07:53:52;10.73;;;3.83;;
69542;SDS011;56762;49.494;11.768;2023-02-15T07:56:20;10.97;;;3.53;;
69542;SDS011;56762;49.494;11.768;2023-02-15T07:58:49;11.05;;;4.20;;
69542;SDS011;56762;49.494;11.768;2023-02-15T08:01:22;12.32;;;4.25;;
69542;SDS011;56762;49.494;11.768;2023-02-15T08:03:52;11.60;;;4.65;;
69542;SDS011;56762;49.494;11.768;2023-02-15T08:06:21;11.55;;;4.65;;
69542;SDS011;56762;49.494;11.768;2023-02-15T08:08:49;10.60;;;3.87;;
69542;SDS011;56762;49.494;11.768;2023-02-15T08:11:18;11.27;;;3.92;;
69542;SDS011;56762;49.494;11.768;2023-02-15T08:13:57;12.10;;;4.45;;
69542;SDS011;56762;49.494;11.768;2023-02-15T08:16:27;11.75;;;4.43;;
69542;SDS011;56762;49.494;11.768;2023-02-15T08:18:58;9.23;;;3.25;;
69542;SDS011;56762;49.494;11.768;2023-02-15T08:21:27;10.97;;;4.20;;
69542;SDS011;56762;49.494;11.768;2023-02-15T08:23:56;11.60;;;4.32;;
69542;SDS011;56762;49.494;11.768;2023-02-15T08:26:24;10.75;;;3.67;;
69542;SDS011;56762;49.494;11.768;2023-02-15T08:28:53;11.25;;;3.90;;
69542;SDS011;56762;49.494;11.768;2023-02-15T08:31:22;14.15;;;4.70;;
69542;SDS011;56762;49.494;11.768;2023-02-15T08:33:52;9.77;;;3.83;;
69542;SDS011;56762;49.494;11.768;2023-02-15T08:36:22;8.82;;;3.55;;
69542;SDS011;56762;49.494;11.768;2023-02-15T08:38:51;10.40;;;3.70;;
69542;SDS011;56762;49.494;11.768;2023-02-15T08:41:20;11.35;;;3.97;;
69542;SDS011;56762;49.494;11.768;2023-02-15T08:43:49;9.05;;;3.88;;
69542;SDS011;56762;49.494;11.768;2023-02-15T08:46:20;11.13;;;3.80;;
69542;SDS011;56762;49.494;11.768;2023-02-15T08:48:50;10.52;;;3.53;;
69542;SDS011;56762;49.494;11.768;2023-02-15T08:51:18;10.10;;;3.83;;
69542;SDS011;56762;49.494;11.768;2023-02-15T08:53:48;9.75;;;3.67;;
69542;SDS011;56762;49.494;11.768;2023-02-15T08:56:19;10.07;;;4.22;;
69542;SDS011;56762;49.494;11.768;2023-02-15T08:58:50;10.77;;;4.00;;
69542;SDS011;56762;49.494;11.768;2023-02-15T09:01:19;11.60;;;4.47;;
69542;SDS011;56762;49.494;11.768;2023-02-15T09:03:50;10.52;;;4.10;;
69542;SDS011;56762;49.494;11.768;2023-02-15T09:06:20;10.93;;;4.18;;
69542;SDS011;56762;49.494;11.768;2023-02-15T09:08:49;11.45;;;4.10;;
69542;SDS011;56762;49.494;11.768;2023-02-15T09:11:18;13.87;;;4.20;;
69542;SDS011;56762;49.494;11.768;2023-02-15T09:13:51;11.30;;;4.18;;
69542;SDS011;56762;49.494;11.768;2023-02-15T09:16:20;11.10;;;4.40;;
69542;SDS011;56762;49.494;11.768;2023-02-15T09:18:50;9.93;;;3.85;;
69542;SDS011;56762;49.494;11.768;2023-02-15T09:21:19;10.65;;;4.35;;
69542;SDS011;56762;49.494;11.768;2023-02-15T09:23:48;12.00;;;4.63;;
69542;SDS011;56762;49.494;11.768;2023-02-15T09:26:18;10.23;;;3.85;;
69542;SDS011;56762;49.494;11.768;2023-02-15T09:28:47;9.23;;;3.58;;
69542;SDS011;56762;49.494;11.768;2023-02-15T09:31:19;8.60;;;3.65;;
69542;SDS011;56762;49.494;11.768;2023-02-15T09:33:49;10.85;;;4.38;;
69542;SDS011;56762;49.494;11.768;2023-02-15T09:36:18;11.33;;;4.57;;
69542;SDS011;56762;49.494;11.768;2023-02-15T09:38:48;10.43;;;4.10;;
69542;SDS011;56762;49.494;11.768;2023-02-15T09:41:29;9.52;;;4.18;;
69542;SDS011;56762;49.494;11.768;2023-02-15T09:44:14;12.68;;;4.38;;
69542;SDS011;56762;49.494;11.768;2023-02-15T09:46:52;12.68;;;4.35;;
69542;SDS011;56762;49.494;11.768;2023-02-15T09:49:35;11.27;;;4.90;;
69542;SDS011;56762;49.494;11.768;2023-02-15T09:52:14;10.95;;;4.47;;
69542;SDS011;56762;49.494;11.768;2023-02-15T09:55:01;11.50;;;4.07;;
69542;SDS011;56762;49.494;11.768;2023-02-15T09:57:40;9.95;;;3.75;;
69542;SDS011;56762;49.494;11.768;2023-02-15T10:00:19;9.35;;;3.95;;
69542;SDS011;56762;49.494;11.768;2023-02-15T10:02:56;11.03;;;3.77;;
69542;SDS011;56762;49.494;11.768;2023-02-15T10:05:38;12.35;;;4.60;;
69542;SDS011;56762;49.494;11.768;2023-02-15T10:08:27;10.05;;;3.65;;
69542;SDS011;56762;49.494;11.768;2023-02-15T10:11:11;12.07;;;4.43;;
69542;SDS011;56762;49.494;11.768;2023-02-15T10:14:08;10.55;;;3.78;;
69542;SDS011;56762;49.494;11.768;2023-02-15T10:16:48;9.67;;;3.73;;
69542;SDS011;56762;49.494;11.768;2023-02-15T10:19:25;11.45;;;5.47;;
69542;SDS011;56762;49.494;11.768;2023-02-15T10:22:02;11.75;;;4.50;;
69542;SDS011;56762;49.494;11.768;2023-02-15T10:24:45;11.93;;;4.15;;
69542;SDS011;56762;49.494;11.768;2023-02-15T10:27:24;10.13;;;4.30;;
69542;SDS011;56762;49.494;11.768;2023-02-15T10:29:57;12.57;;;4.20;;
69542;SDS011;56762;49.494;11.768;2023-02-15T10:32:35;12.68;;;3.97;;
69542;SDS011;56762;49.494;11.768;2023-02-15T10:35:10;10.65;;;4.20;;
69542;SDS011;56762;49.494;11.768;2023-02-15T10:37:52;11.40;;;4.25;;
69542;SDS011;56762;49.494;11.768;2023-02-15T10:40:28;9.48;;;3.50;;
69542;SDS011;56762;49.494;11.768;2023-02-15T10:43:08;11.73;;;4.03;;
69542;SDS011;56762;49.494;11.768;2023-02-15T10:45:49;10.32;;;4.35;;
69542;SDS011;56762;49.494;11.768;2023-02-15T10:48:27;12.77;;;5.03;;
69542;SDS011;56762;49.494;11.768;2023-02-15T10:51:14;10.70;;;4.07;;
69542;SDS011;56762;49.494;11.768;2023-02-15T10:54:01;12.18;;;4.85;;
69542;SDS011;56762;49.494;11.768;2023-02-15T10:56:38;11.80;;;4.90;;
69542;SDS011;56762;49.494;11.768;2023-02-15T10:59:20;14.20;;;5.30;;
69542;SDS011;56762;49.494;11.768;2023-02-15T11:01:58;14.15;;;5.10;;
69542;SDS011;56762;49.494;11.768;2023-02-15T11:04:38;11.20;;;4.55;;
69542;SDS011;56762;49.494;11.768;2023-02-15T11:07:10;13.57;;;5.20;;
69542;SDS011;56762;49.494;11.768;2023-02-15T11:09:44;11.43;;;4.80;;
69542;SDS011;56762;49.494;11.768;2023-02-15T11:12:16;10.55;;;4.75;;
69542;SDS011;56762;49.494;11.768;2023-02-15T11:14:49;14.55;;;5.53;;
69542;SDS011;56762;49.494;11.768;2023-02-15T11:17:23;13.23;;;4.80;;
69542;SDS011;56762;49.494;11.768;2023-02-15T11:19:58;10.98;;;4.13;;
69542;SDS011;56762;49.494;11.768;2023-02-15T11:22:30;11.67;;;4.93;;
69542;SDS011;56762;49.494;11.768;2023-02-15T11:25:10;11.82;;;4.30;;
69542;SDS011;56762;49.494;11.768;2023-02-15T11:27:44;14.10;;;5.13;;
69542;SDS011;56762;49.494;11.768;2023-02-15T11:30:15;12.75;;;5.38;;
69542;SDS011;56762;49.494;11.768;2023-02-15T11:32:47;11.85;;;4.60;;
69542;SDS011;56762;49.494;11.768;2023-02-15T11:35:19;13.73;;;5.47;;
69542;SDS011;56762;49.494;11.768;2023-02-15T11:37:54;15.07;;;5.63;;
69542;SDS011;56762;49.494;11.768;2023-02-15T11:40:26;13.68;;;5.00;;
69542;SDS011;56762;49.494;11.768;2023-02-15T11:42:58;13.27;;;5.38;;
69542;SDS011;56762;49.494;11.768;2023-02-15T11:45:31;11.65;;;4.63;;
69542;SDS011;56762;49.494;11.768;2023-02-15T11:48:00;13.30;;;4.80;;
69542;SDS011;56762;49.494;11.768;2023-02-15T11:50:35;13.00;;;5.03;;
69542;SDS011;56762;49.494;11.768;2023-02-15T11:53:04;12.98;;;5.15;;
69542;SDS011;56762;49.494;11.768;2023-02-15T11:55:38;16.15;;;6.13;;
69542;SDS011;56762;49.494;11.768;2023-02-15T11:58:09;12.32;;;5.20;;
69542;SDS011;56762;49.494;11.768;2023-02-15T12:00:44;12.73;;;5.67;;
69542;SDS011;56762;49.494;11.768;2023-02-15T12:03:14;13.15;;;5.25;;
69542;SDS011;56762;49.494;11.768;2023-02-15T12:05:49;14.15;;;5.90;;
69542;SDS011;56762;49.494;11.768;2023-02-15T12:08:21;11.93;;;5.50;;
69542;SDS011;56762;49.494;11.768;2023-02-15T12:11:00;11.52;;;4.90;;
69542;SDS011;56762;49.494;11.768;2023-02-15T12:13:33;13.40;;;5.27;;
69542;SDS011;56762;49.494;11.768;2023-02-15T12:16:04;13.75;;;6.05;;
69542;SDS011;56762;49.494;11.768;2023-02-15T12:18:37;14.95;;;5.78;;
69542;SDS011;56762;49.494;11.768;2023-02-15T12:21:08;13.88;;;5.43;;
69542;SDS011;56762;49.494;11.768;2023-02-15T12:23:41;17.98;;;6.85;;
69542;SDS011;56762;49.494;11.768;2023-02-15T12:26:15;13.93;;;5.97;;
69542;SDS011;56762;49.494;11.768;2023-02-15T12:28:51;14.18;;;5.50;;
69542;SDS011;56762;49.494;11.768;2023-02-15T12:31:21;15.30;;;6.95;;
69542;SDS011;56762;49.494;11.768;2023-02-15T12:33:52;13.50;;;5.63;;
69542;SDS011;56762;49.494;11.768;2023-02-15T12:36:24;17.15;;;6.38;;
69542;SDS011;56762;49.494;11.768;2023-02-15T12:39:04;14.63;;;5.60;;
69542;SDS011;56762;49.494;11.768;2023-02-15T12:41:45;14.32;;;6.45;;
69542;SDS011;56762;49.494;11.768;2023-02-15T12:44:15;15.65;;;6.20;;
69542;SDS011;56762;49.494;11.768;2023-02-15T12:46:55;16.23;;;6.63;;
69542;SDS011;56762;49.494;11.768;2023-02-15T12:49:24;17.95;;;8.50;;
69542;SDS011;56762;49.494;11.768;2023-02-15T12:51:54;15.63;;;6.23;;
69542;SDS011;56762;49.494;11.768;2023-02-15T12:54:27;15.77;;;7.35;;
69542;SDS011;56762;49.494;11.768;2023-02-15T12:56:58;17.55;;;8.20;;
69542;SDS011;56762;49.494;11.768;2023-02-15T12:59:26;16.88;;;7.57;;
69542;SDS011;56762;49.494;11.768;2023-02-15T13:01:54;16.40;;;7.00;;
69542;SDS011;56762;49.494;11.768;2023-02-15T13:04:23;16.23;;;7.50;;
69542;SDS011;56762;49.494;11.768;2023-02-15T13:06:53;14.32;;;6.40;;
69542;SDS011;56762;49.494;11.768;2023-02-15T13:09:25;13.75;;;5.85;;
69542;SDS011;56762;49.494;11.768;2023-02-15T13:12:10;15.60;;;6.53;;
69542;SDS011;56762;49.494;11.768;2023-02-15T13:14:45;14.73;;;6.30;;
69542;SDS011;56762;49.494;11.768;2023-02-15T13:17:17;14.80;;;6.40;;
69542;SDS011;56762;49.494;11.768;2023-02-15T13:19:50;14.85;;;6.65;;
69542;SDS011;56762;49.494;11.768;2023-02-15T13:22:21;13.60;;;6.05;;
69542;SDS011;56762;49.494;11.768;2023-02-15T13:24:53;13.05;;;5.82;;
69542;SDS011;56762;49.494;11.768;2023-02-15T13:27:26;13.68;;;6.15;;
69542;SDS011;56762;49.494;11.768;2023-02-15T13:30:10;14.63;;;6.00;;
69542;SDS011;56762;49.494;11.768;2023-02-15T13:32:48;13.07;;;6.00;;
69542;SDS011;56762;49.494;11.768;2023-02-15T13:35:18;19.02;;;7.55;;
69542;SDS011;56762;49.494;11.768;2023-02-15T13:40:44;17.42;;;6.00;;
69542;SDS011;56762;49.494;11.768;2023-02-15T13:43:24;13.90;;;6.23;;
69542;SDS011;56762;49.494;11.768;2023-02-15T13:46:03;17.20;;;6.38;;
69542;SDS011;56762;49.494;11.768;2023-02-15T13:48:44;15.30;;;6.70;;
69542;SDS011;56762;49.494;11.768;2023-02-15T13:51:21;14.65;;;6.28;;
69542;SDS011;56762;49.494;11.768;2023-02-15T13:56:58;15.17;;;6.80;;
69542;SDS011;56762;49.494;11.768;2023-02-15T13:59:43;16.25;;;6.80;;
69542;SDS011;56762;49.494;11.768;2023-02-15T14:02:30;14.18;;;5.90;;
69542;SDS011;56762;49.494;11.768;2023-02-15T14:08:13;15.63;;;6.63;;
69542;SDS011;56762;49.494;11.768;2023-02-15T14:10:53;15.80;;;7.07;;
69542;SDS011;56762;49.494;11.768;2023-02-15T14:16:35;13.93;;;5.90;;
69542;SDS011;56762;49.494;11.768;2023-02-15T14:19:19;14.90;;;6.15;;
69542;SDS011;56762;49.494;11.768;2023-02-15T14:21:54;15.00;;;6.72;;
69542;SDS011;56762;49.494;11.768;2023-02-15T14:24:30;15.97;;;6.57;;
69542;SDS011;56762;49.494;11.768;2023-02-15T14:27:07;15.55;;;6.80;;
69542;SDS011;56762;49.494;11.768;2023-02-15T14:29:48;14.82;;;7.32;;
69542;SDS011;56762;49.494;11.768;2023-02-15T14:32:23;16.98;;;6.93;;
69542;SDS011;56762;49.494;11.768;2023-02-15T14:34:56;15.13;;;6.97;;
69542;SDS011;56762;49.494;11.768;2023-02-15T14:37:29;17.10;;;7.63;;
69542;SDS011;56762;49.494;11.768;2023-02-15T14:40:06;21.98;;;9.15;;
69542;SDS011;56762;49.494;11.768;2023-02-15T14:43:01;18.98;;;8.48;;
69542;SDS011;56762;49.494;11.768;2023-02-15T14:45:37;14.60;;;5.90;;
69542;SDS011;56762;49.494;11.768;2023-02-15T14:48:12;15.10;;;6.43;;
69542;SDS011;56762;49.494;11.768;2023-02-15T14:50:48;12.03;;;6.30;;
69542;SDS011;56762;49.494;11.768;2023-02-15T14:56:23;16.92;;;7.32;;
69542;SDS011;56762;49.494;11.768;2023-02-15T15:01:41;13.65;;;7.00;;
69542;SDS011;56762;49.494;11.768;2023-02-15T15:04:23;16.37;;;7.30;;
69542;SDS011;56762;49.494;11.768;2023-02-15T15:07:01;17.67;;;7.47;;
69542;SDS011;56762;49.494;11.768;2023-02-15T15:09:35;16.98;;;7.60;;
69542;SDS011;56762;49.494;11.768;2023-02-15T15:12:13;20.67;;;9.23;;